Aviation Digital Data Service (ADDS)

Output produced by METARs form (0009 UTC 24 May 2022)
found at http://www.aviationweather.gov/metar/data/
 
ELLX 232350Z 19006KT 160V220 9999 SCT008 BKN011 13/12 Q1004 NOSIG
TAF ELLX 232300Z 2400/2506 24015KT 9999 FEW020 SCT015 
     TEMPO 2400/2405 4500 SHRA SCT014TCU 
     TEMPO 2410/2417 SHRA SCT020TCU